sensor_id;sensor_type;location;lat;lon;timestamp;P1;durP1;ratioP1;P2;durP2;ratioP2
705;SDS011;21234;48.690;9.016;2023-11-21T00:00:57;8.53;;;2.67;;
705;SDS011;21234;48.690;9.016;2023-11-21T00:03:23;5.77;;;1.87;;
705;SDS011;21234;48.690;9.016;2023-11-21T00:05:53;4.00;;;1.57;;
705;SDS011;21234;48.690;9.016;2023-11-21T00:08:19;2.60;;;1.10;;
705;SDS011;21234;48.690;9.016;2023-11-21T00:10:46;1.63;;;1.17;;
705;SDS011;21234;48.690;9.016;2023-11-21T00:13:14;5.00;;;2.10;;
705;SDS011;21234;48.690;9.016;2023-11-21T00:15:41;3.20;;;1.27;;
705;SDS011;21234;48.690;9.016;2023-11-21T00:18:08;2.83;;;1.60;;
705;SDS011;21234;48.690;9.016;2023-11-21T00:20:35;3.40;;;1.40;;
705;SDS011;21234;48.690;9.016;2023-11-21T00:23:02;2.87;;;1.57;;
705;SDS011;21234;48.690;9.016;2023-11-21T00:25:28;1.63;;;1.33;;
705;SDS011;21234;48.690;9.016;2023-11-21T00:27:56;3.37;;;1.63;;
705;SDS011;21234;48.690;9.016;2023-11-21T00:30:24;3.63;;;2.57;;
705;SDS011;21234;48.690;9.016;2023-11-21T00:32:50;9.37;;;2.37;;
705;SDS011;21234;48.690;9.016;2023-11-21T00:35:16;5.27;;;1.70;;
705;SDS011;21234;48.690;9.016;2023-11-21T00:37:43;3.97;;;1.77;;
705;SDS011;21234;48.690;9.016;2023-11-21T00:40:10;3.80;;;2.17;;
705;SDS011;21234;48.690;9.016;2023-11-21T00:42:38;3.63;;;1.80;;
705;SDS011;21234;48.690;9.016;2023-11-21T00:45:05;5.70;;;3.43;;
705;SDS011;21234;48.690;9.016;2023-11-21T00:47:35;4.93;;;1.43;;
705;SDS011;21234;48.690;9.016;2023-11-21T00:50:02;1.13;;;1.00;;
705;SDS011;21234;48.690;9.016;2023-11-21T00:52:31;4.63;;;1.57;;
705;SDS011;21234;48.690;9.016;2023-11-21T00:54:58;3.80;;;1.37;;
705;SDS011;21234;48.690;9.016;2023-11-21T00:57:25;4.73;;;1.40;;
705;SDS011;21234;48.690;9.016;2023-11-21T00:59:51;4.37;;;1.50;;
705;SDS011;21234;48.690;9.016;2023-11-21T01:02:18;7.10;;;1.70;;
705;SDS011;21234;48.690;9.016;2023-11-21T01:04:46;4.00;;;1.37;;
705;SDS011;21234;48.690;9.016;2023-11-21T01:07:13;1.40;;;0.80;;
705;SDS011;21234;48.690;9.016;2023-11-21T01:09:40;1.00;;;0.90;;
705;SDS011;21234;48.690;9.016;2023-11-21T01:12:09;2.07;;;1.30;;
705;SDS011;21234;48.690;9.016;2023-11-21T01:14:36;6.50;;;1.07;;
705;SDS011;21234;48.690;9.016;2023-11-21T01:17:03;3.77;;;1.60;;
705;SDS011;21234;48.690;9.016;2023-11-21T01:19:30;2.50;;;1.57;;
705;SDS011;21234;48.690;9.016;2023-11-21T01:21:58;1.60;;;0.90;;
705;SDS011;21234;48.690;9.016;2023-11-21T01:24:25;4.27;;;1.30;;
705;SDS011;21234;48.690;9.016;2023-11-21T01:26:52;3.23;;;1.27;;
705;SDS011;21234;48.690;9.016;2023-11-21T01:29:18;1.43;;;1.27;;
705;SDS011;21234;48.690;9.016;2023-11-21T01:31:45;0.80;;;0.80;;
705;SDS011;21234;48.690;9.016;2023-11-21T01:34:12;1.40;;;0.63;;
705;SDS011;21234;48.690;9.016;2023-11-21T01:36:39;4.93;;;1.47;;
705;SDS011;21234;48.690;9.016;2023-11-21T01:39:07;1.90;;;1.13;;
705;SDS011;21234;48.690;9.016;2023-11-21T01:41:38;2.50;;;1.10;;
705;SDS011;21234;48.690;9.016;2023-11-21T01:44:04;1.73;;;1.13;;
705;SDS011;21234;48.690;9.016;2023-11-21T01:46:33;1.27;;;1.03;;
705;SDS011;21234;48.690;9.016;2023-11-21T01:48:59;3.10;;;1.40;;
705;SDS011;21234;48.690;9.016;2023-11-21T01:51:26;2.10;;;0.70;;
705;SDS011;21234;48.690;9.016;2023-11-21T01:53:53;2.20;;;1.37;;
705;SDS011;21234;48.690;9.016;2023-11-21T01:56:22;1.47;;;0.90;;
705;SDS011;21234;48.690;9.016;2023-11-21T01:58:49;1.90;;;0.80;;
705;SDS011;21234;48.690;9.016;2023-11-21T02:01:16;2.57;;;0.93;;
705;SDS011;21234;48.690;9.016;2023-11-21T02:03:44;1.90;;;0.90;;
705;SDS011;21234;48.690;9.016;2023-11-21T02:06:10;1.83;;;0.50;;
705;SDS011;21234;48.690;9.016;2023-11-21T02:08:37;3.27;;;1.43;;
705;SDS011;21234;48.690;9.016;2023-11-21T02:11:04;0.90;;;0.70;;
705;SDS011;21234;48.690;9.016;2023-11-21T02:13:33;2.07;;;0.90;;
705;SDS011;21234;48.690;9.016;2023-11-21T02:16:00;1.50;;;0.60;;
705;SDS011;21234;48.690;9.016;2023-11-21T02:18:27;3.53;;;1.00;;
705;SDS011;21234;48.690;9.016;2023-11-21T02:20:55;1.03;;;0.70;;
705;SDS011;21234;48.690;9.016;2023-11-21T02:23:23;2.10;;;0.70;;
705;SDS011;21234;48.690;9.016;2023-11-21T02:25:53;0.93;;;0.67;;
705;SDS011;21234;48.690;9.016;2023-11-21T02:28:20;5.07;;;1.00;;
705;SDS011;21234;48.690;9.016;2023-11-21T02:30:50;1.90;;;0.80;;
705;SDS011;21234;48.690;9.016;2023-11-21T02:33:21;2.30;;;1.07;;
705;SDS011;21234;48.690;9.016;2023-11-21T02:35:48;0.80;;;0.80;;
705;SDS011;21234;48.690;9.016;2023-11-21T02:38:14;5.00;;;1.03;;
705;SDS011;21234;48.690;9.016;2023-11-21T02:40:43;2.40;;;0.80;;
705;SDS011;21234;48.690;9.016;2023-11-21T02:43:10;2.03;;;0.60;;
705;SDS011;21234;48.690;9.016;2023-11-21T02:45:36;1.43;;;0.80;;
705;SDS011;21234;48.690;9.016;2023-11-21T02:48:03;2.03;;;0.80;;
705;SDS011;21234;48.690;9.016;2023-11-21T02:50:31;0.90;;;0.70;;
705;SDS011;21234;48.690;9.016;2023-11-21T02:52:58;3.00;;;1.07;;
705;SDS011;21234;48.690;9.016;2023-11-21T02:55:25;0.70;;;0.50;;
705;SDS011;21234;48.690;9.016;2023-11-21T02:57:54;1.00;;;0.60;;
705;SDS011;21234;48.690;9.016;2023-11-21T03:00:21;0.63;;;0.57;;
705;SDS011;21234;48.690;9.016;2023-11-21T03:02:49;0.97;;;0.53;;
705;SDS011;21234;48.690;9.016;2023-11-21T03:05:16;0.80;;;0.80;;
705;SDS011;21234;48.690;9.016;2023-11-21T03:07:42;1.83;;;0.50;;
705;SDS011;21234;48.690;9.016;2023-11-21T03:10:09;2.30;;;0.70;;
705;SDS011;21234;48.690;9.016;2023-11-21T03:12:36;1.97;;;0.63;;
705;SDS011;21234;48.690;9.016;2023-11-21T03:15:05;1.90;;;0.60;;
705;SDS011;21234;48.690;9.016;2023-11-21T03:17:32;1.40;;;0.47;;
705;SDS011;21234;48.690;9.016;2023-11-21T03:20:00;3.70;;;0.80;;
705;SDS011;21234;48.690;9.016;2023-11-21T03:22:28;0.80;;;0.50;;
705;SDS011;21234;48.690;9.016;2023-11-21T03:24:55;1.13;;;0.83;;
705;SDS011;21234;48.690;9.016;2023-11-21T03:27:21;1.17;;;0.60;;
705;SDS011;21234;48.690;9.016;2023-11-21T03:29:48;1.10;;;0.50;;
705;SDS011;21234;48.690;9.016;2023-11-21T03:32:16;0.80;;;0.63;;
705;SDS011;21234;48.690;9.016;2023-11-21T03:34:53;2.30;;;0.80;;
705;SDS011;21234;48.690;9.016;2023-11-21T03:37:21;1.13;;;0.60;;
705;SDS011;21234;48.690;9.016;2023-11-21T03:39:48;1.23;;;0.67;;
705;SDS011;21234;48.690;9.016;2023-11-21T03:42:15;0.93;;;0.57;;
705;SDS011;21234;48.690;9.016;2023-11-21T03:44:42;1.07;;;0.53;;
705;SDS011;21234;48.690;9.016;2023-11-21T03:47:09;0.77;;;0.43;;
705;SDS011;21234;48.690;9.016;2023-11-21T03:49:37;3.80;;;1.53;;
705;SDS011;21234;48.690;9.016;2023-11-21T03:52:04;0.90;;;0.50;;
705;SDS011;21234;48.690;9.016;2023-11-21T03:54:32;0.93;;;0.70;;
705;SDS011;21234;48.690;9.016;2023-11-21T03:56:59;0.50;;;0.47;;
705;SDS011;21234;48.690;9.016;2023-11-21T03:59:26;1.57;;;1.33;;
705;SDS011;21234;48.690;9.016;2023-11-21T04:01:54;1.37;;;1.00;;
705;SDS011;21234;48.690;9.016;2023-11-21T04:04:22;0.50;;;0.33;;
705;SDS011;21234;48.690;9.016;2023-11-21T04:06:50;1.10;;;0.70;;
705;SDS011;21234;48.690;9.016;2023-11-21T04:09:18;1.03;;;1.00;;
705;SDS011;21234;48.690;9.016;2023-11-21T04:11:44;2.27;;;0.40;;
705;SDS011;21234;48.690;9.016;2023-11-21T04:14:11;0.80;;;0.60;;
705;SDS011;21234;48.690;9.016;2023-11-21T04:16:38;0.53;;;0.40;;
705;SDS011;21234;48.690;9.016;2023-11-21T04:19:05;1.80;;;0.80;;
705;SDS011;21234;48.690;9.016;2023-11-21T04:21:31;1.27;;;0.60;;
705;SDS011;21234;48.690;9.016;2023-11-21T04:24:01;0.50;;;0.47;;
705;SDS011;21234;48.690;9.016;2023-11-21T04:26:27;0.57;;;0.40;;
705;SDS011;21234;48.690;9.016;2023-11-21T04:28:54;0.60;;;0.40;;
705;SDS011;21234;48.690;9.016;2023-11-21T04:31:21;1.17;;;0.50;;
705;SDS011;21234;48.690;9.016;2023-11-21T04:33:47;2.53;;;0.40;;
705;SDS011;21234;48.690;9.016;2023-11-21T04:36:14;0.57;;;0.40;;
705;SDS011;21234;48.690;9.016;2023-11-21T04:38:41;0.60;;;0.40;;
705;SDS011;21234;48.690;9.016;2023-11-21T04:41:09;6.13;;;0.80;;
705;SDS011;21234;48.690;9.016;2023-11-21T04:43:35;0.70;;;0.40;;
705;SDS011;21234;48.690;9.016;2023-11-21T04:46:01;0.50;;;0.33;;
705;SDS011;21234;48.690;9.016;2023-11-21T04:48:28;2.23;;;0.50;;
705;SDS011;21234;48.690;9.016;2023-11-21T04:50:55;0.60;;;0.33;;
705;SDS011;21234;48.690;9.016;2023-11-21T04:53:21;0.60;;;0.37;;
705;SDS011;21234;48.690;9.016;2023-11-21T04:55:48;1.20;;;0.40;;
705;SDS011;21234;48.690;9.016;2023-11-21T04:58:16;0.57;;;0.30;;
705;SDS011;21234;48.690;9.016;2023-11-21T05:00:44;1.43;;;0.73;;
705;SDS011;21234;48.690;9.016;2023-11-21T05:03:11;0.70;;;0.60;;
705;SDS011;21234;48.690;9.016;2023-11-21T05:05:38;0.60;;;0.53;;
705;SDS011;21234;48.690;9.016;2023-11-21T05:08:04;0.97;;;0.53;;
705;SDS011;21234;48.690;9.016;2023-11-21T05:10:31;1.07;;;0.83;;
705;SDS011;21234;48.690;9.016;2023-11-21T05:12:58;1.43;;;0.40;;
705;SDS011;21234;48.690;9.016;2023-11-21T05:15:27;0.50;;;0.43;;
705;SDS011;21234;48.690;9.016;2023-11-21T05:17:54;0.60;;;0.50;;
705;SDS011;21234;48.690;9.016;2023-11-21T05:20:25;1.63;;;0.40;;
705;SDS011;21234;48.690;9.016;2023-11-21T05:22:51;0.50;;;0.47;;
705;SDS011;21234;48.690;9.016;2023-11-21T05:25:18;0.70;;;0.40;;
705;SDS011;21234;48.690;9.016;2023-11-21T05:27:45;0.50;;;0.37;;
705;SDS011;21234;48.690;9.016;2023-11-21T05:30:12;4.20;;;0.80;;
705;SDS011;21234;48.690;9.016;2023-11-21T05:32:41;1.13;;;0.53;;
705;SDS011;21234;48.690;9.016;2023-11-21T05:35:08;0.83;;;0.50;;
705;SDS011;21234;48.690;9.016;2023-11-21T05:37:39;0.90;;;0.60;;
705;SDS011;21234;48.690;9.016;2023-11-21T05:40:06;2.60;;;1.57;;
705;SDS011;21234;48.690;9.016;2023-11-21T05:42:34;0.70;;;0.70;;
705;SDS011;21234;48.690;9.016;2023-11-21T05:45:04;0.60;;;0.37;;
705;SDS011;21234;48.690;9.016;2023-11-21T05:47:35;0.80;;;0.60;;
705;SDS011;21234;48.690;9.016;2023-11-21T05:50:05;1.23;;;0.77;;
705;SDS011;21234;48.690;9.016;2023-11-21T05:52:35;1.27;;;0.90;;
705;SDS011;21234;48.690;9.016;2023-11-21T05:55:02;0.60;;;0.50;;
705;SDS011;21234;48.690;9.016;2023-11-21T05:57:32;0.87;;;0.50;;
705;SDS011;21234;48.690;9.016;2023-11-21T05:59:59;0.70;;;0.57;;
705;SDS011;21234;48.690;9.016;2023-11-21T06:02:28;1.17;;;0.67;;
705;SDS011;21234;48.690;9.016;2023-11-21T06:04:55;0.90;;;0.80;;
705;SDS011;21234;48.690;9.016;2023-11-21T06:07:24;1.67;;;1.10;;
705;SDS011;21234;48.690;9.016;2023-11-21T06:09:51;1.20;;;0.70;;
705;SDS011;21234;48.690;9.016;2023-11-21T06:12:19;0.60;;;0.57;;
705;SDS011;21234;48.690;9.016;2023-11-21T06:14:47;0.57;;;0.50;;
705;SDS011;21234;48.690;9.016;2023-11-21T06:17:15;1.23;;;0.60;;
705;SDS011;21234;48.690;9.016;2023-11-21T06:19:42;0.90;;;0.60;;
705;SDS011;21234;48.690;9.016;2023-11-21T06:22:15;0.60;;;0.50;;
705;SDS011;21234;48.690;9.016;2023-11-21T06:24:45;2.77;;;0.60;;
705;SDS011;21234;48.690;9.016;2023-11-21T06:27:13;0.73;;;0.67;;
705;SDS011;21234;48.690;9.016;2023-11-21T06:29:41;0.77;;;0.40;;
705;SDS011;21234;48.690;9.016;2023-11-21T06:32:10;2.07;;;0.60;;
705;SDS011;21234;48.690;9.016;2023-11-21T06:34:38;0.60;;;0.40;;
705;SDS011;21234;48.690;9.016;2023-11-21T06:37:05;1.20;;;0.80;;
705;SDS011;21234;48.690;9.016;2023-11-21T06:39:32;1.53;;;0.70;;
705;SDS011;21234;48.690;9.016;2023-11-21T06:42:00;1.83;;;0.80;;
705;SDS011;21234;48.690;9.016;2023-11-21T06:44:27;0.60;;;0.60;;
705;SDS011;21234;48.690;9.016;2023-11-21T06:46:55;3.13;;;1.10;;
705;SDS011;21234;48.690;9.016;2023-11-21T06:49:25;1.17;;;1.07;;
705;SDS011;21234;48.690;9.016;2023-11-21T06:51:52;1.23;;;1.13;;
705;SDS011;21234;48.690;9.016;2023-11-21T06:54:20;2.93;;;1.90;;
705;SDS011;21234;48.690;9.016;2023-11-21T06:56:47;2.60;;;1.13;;
705;SDS011;21234;48.690;9.016;2023-11-21T06:59:16;1.30;;;1.20;;
705;SDS011;21234;48.690;9.016;2023-11-21T07:01:44;4.33;;;2.70;;
705;SDS011;21234;48.690;9.016;2023-11-21T07:04:12;3.37;;;1.80;;
705;SDS011;21234;48.690;9.016;2023-11-21T07:06:39;3.63;;;1.97;;
705;SDS011;21234;48.690;9.016;2023-11-21T07:09:05;4.30;;;2.10;;
705;SDS011;21234;48.690;9.016;2023-11-21T07:11:33;1.97;;;1.77;;
705;SDS011;21234;48.690;9.016;2023-11-21T07:14:00;2.67;;;2.27;;
705;SDS011;21234;48.690;9.016;2023-11-21T07:16:32;4.07;;;2.30;;
705;SDS011;21234;48.690;9.016;2023-11-21T07:19:00;3.10;;;1.70;;
705;SDS011;21234;48.690;9.016;2023-11-21T07:21:27;4.33;;;2.03;;
705;SDS011;21234;48.690;9.016;2023-11-21T07:23:54;2.97;;;2.13;;
705;SDS011;21234;48.690;9.016;2023-11-21T07:26:20;3.37;;;1.30;;
705;SDS011;21234;48.690;9.016;2023-11-21T07:28:48;1.63;;;1.30;;
705;SDS011;21234;48.690;9.016;2023-11-21T07:31:18;2.10;;;1.43;;
705;SDS011;21234;48.690;9.016;2023-11-21T07:33:51;1.30;;;1.20;;
705;SDS011;21234;48.690;9.016;2023-11-21T07:36:18;2.43;;;1.70;;
705;SDS011;21234;48.690;9.016;2023-11-21T07:38:46;2.97;;;1.60;;
705;SDS011;21234;48.690;9.016;2023-11-21T07:41:13;1.40;;;1.30;;
705;SDS011;21234;48.690;9.016;2023-11-21T07:43:40;1.83;;;1.30;;
705;SDS011;21234;48.690;9.016;2023-11-21T07:46:07;3.03;;;2.10;;
705;SDS011;21234;48.690;9.016;2023-11-21T07:48:35;1.33;;;1.23;;
705;SDS011;21234;48.690;9.016;2023-11-21T07:51:05;1.40;;;1.30;;
705;SDS011;21234;48.690;9.016;2023-11-21T07:53:33;3.07;;;1.20;;
705;SDS011;21234;48.690;9.016;2023-11-21T07:56:02;3.07;;;1.40;;
705;SDS011;21234;48.690;9.016;2023-11-21T07:58:30;2.20;;;1.43;;
705;SDS011;21234;48.690;9.016;2023-11-21T08:00:58;1.47;;;1.30;;
705;SDS011;21234;48.690;9.016;2023-11-21T08:03:25;3.03;;;1.67;;
705;SDS011;21234;48.690;9.016;2023-11-21T08:05:52;3.33;;;1.40;;
705;SDS011;21234;48.690;9.016;2023-11-21T08:08:21;1.63;;;1.37;;
705;SDS011;21234;48.690;9.016;2023-11-21T08:10:48;1.30;;;1.20;;
705;SDS011;21234;48.690;9.016;2023-11-21T08:13:21;3.77;;;1.57;;
705;SDS011;21234;48.690;9.016;2023-11-21T08:15:48;2.10;;;1.90;;
705;SDS011;21234;48.690;9.016;2023-11-21T08:18:15;1.97;;;1.20;;
705;SDS011;21234;48.690;9.016;2023-11-21T08:20:42;0.80;;;0.80;;
705;SDS011;21234;48.690;9.016;2023-11-21T08:23:14;1.07;;;0.70;;
705;SDS011;21234;48.690;9.016;2023-11-21T08:25:47;1.13;;;0.70;;
705;SDS011;21234;48.690;9.016;2023-11-21T08:28:20;1.60;;;0.97;;
705;SDS011;21234;48.690;9.016;2023-11-21T08:30:48;1.97;;;1.40;;
705;SDS011;21234;48.690;9.016;2023-11-21T08:33:16;1.20;;;0.90;;
705;SDS011;21234;48.690;9.016;2023-11-21T08:35:42;1.80;;;1.17;;
705;SDS011;21234;48.690;9.016;2023-11-21T08:38:09;0.90;;;0.83;;
705;SDS011;21234;48.690;9.016;2023-11-21T08:40:37;3.60;;;1.20;;
705;SDS011;21234;48.690;9.016;2023-11-21T08:43:05;1.97;;;1.47;;
705;SDS011;21234;48.690;9.016;2023-11-21T08:45:33;0.77;;;0.77;;
705;SDS011;21234;48.690;9.016;2023-11-21T08:48:00;1.50;;;0.63;;
705;SDS011;21234;48.690;9.016;2023-11-21T08:50:27;2.43;;;1.07;;
705;SDS011;21234;48.690;9.016;2023-11-21T08:52:53;0.97;;;0.80;;
705;SDS011;21234;48.690;9.016;2023-11-21T08:55:20;0.83;;;0.70;;
705;SDS011;21234;48.690;9.016;2023-11-21T08:57:47;1.10;;;1.00;;
705;SDS011;21234;48.690;9.016;2023-11-21T09:00:16;2.43;;;2.10;;
705;SDS011;21234;48.690;9.016;2023-11-21T09:02:43;1.07;;;0.90;;
705;SDS011;21234;48.690;9.016;2023-11-21T09:05:12;0.90;;;0.83;;
705;SDS011;21234;48.690;9.016;2023-11-21T09:07:40;1.50;;;0.87;;
705;SDS011;21234;48.690;9.016;2023-11-21T09:10:08;1.07;;;0.97;;
705;SDS011;21234;48.690;9.016;2023-11-21T09:12:36;1.23;;;0.80;;
705;SDS011;21234;48.690;9.016;2023-11-21T09:15:04;2.20;;;1.30;;
705;SDS011;21234;48.690;9.016;2023-11-21T09:17:33;1.07;;;0.80;;
705;SDS011;21234;48.690;9.016;2023-11-21T09:20:00;0.97;;;0.80;;
705;SDS011;21234;48.690;9.016;2023-11-21T09:22:28;1.07;;;0.93;;
705;SDS011;21234;48.690;9.016;2023-11-21T09:24:56;1.43;;;0.87;;
705;SDS011;21234;48.690;9.016;2023-11-21T09:27:23;1.70;;;0.77;;
705;SDS011;21234;48.690;9.016;2023-11-21T09:29:51;2.13;;;1.67;;
705;SDS011;21234;48.690;9.016;2023-11-21T09:32:18;1.90;;;1.03;;
705;SDS011;21234;48.690;9.016;2023-11-21T09:34:47;1.53;;;0.90;;
705;SDS011;21234;48.690;9.016;2023-11-21T09:37:14;1.23;;;0.70;;
705;SDS011;21234;48.690;9.016;2023-11-21T09:39:41;1.70;;;0.80;;
705;SDS011;21234;48.690;9.016;2023-11-21T09:42:08;1.00;;;0.80;;
705;SDS011;21234;48.690;9.016;2023-11-21T09:44:41;5.37;;;1.20;;
705;SDS011;21234;48.690;9.016;2023-11-21T09:47:14;1.40;;;1.30;;
705;SDS011;21234;48.690;9.016;2023-11-21T09:49:42;4.63;;;1.60;;
705;SDS011;21234;48.690;9.016;2023-11-21T09:52:17;1.53;;;1.43;;
705;SDS011;21234;48.690;9.016;2023-11-21T09:54:48;2.37;;;1.70;;
705;SDS011;21234;48.690;9.016;2023-11-21T09:57:16;2.20;;;1.50;;
705;SDS011;21234;48.690;9.016;2023-11-21T09:59:44;1.63;;;0.70;;
705;SDS011;21234;48.690;9.016;2023-11-21T10:02:13;1.00;;;0.87;;
705;SDS011;21234;48.690;9.016;2023-11-21T10:04:43;1.00;;;0.80;;
705;SDS011;21234;48.690;9.016;2023-11-21T10:07:12;0.73;;;0.73;;
705;SDS011;21234;48.690;9.016;2023-11-21T10:09:40;2.23;;;0.83;;
705;SDS011;21234;48.690;9.016;2023-11-21T10:12:08;1.10;;;0.70;;
705;SDS011;21234;48.690;9.016;2023-11-21T10:14:39;3.43;;;0.70;;
705;SDS011;21234;48.690;9.016;2023-11-21T10:17:09;1.13;;;0.70;;
705;SDS011;21234;48.690;9.016;2023-11-21T10:19:37;6.93;;;1.07;;
705;SDS011;21234;48.690;9.016;2023-11-21T10:22:05;1.73;;;1.03;;
705;SDS011;21234;48.690;9.016;2023-11-21T10:24:35;2.33;;;1.27;;
705;SDS011;21234;48.690;9.016;2023-11-21T10:27:03;1.50;;;1.30;;
705;SDS011;21234;48.690;9.016;2023-11-21T10:29:30;3.37;;;1.80;;
705;SDS011;21234;48.690;9.016;2023-11-21T10:32:01;1.93;;;1.27;;
705;SDS011;21234;48.690;9.016;2023-11-21T10:34:28;1.40;;;1.30;;
705;SDS011;21234;48.690;9.016;2023-11-21T10:36:55;2.50;;;1.33;;
705;SDS011;21234;48.690;9.016;2023-11-21T10:39:23;4.10;;;1.27;;
705;SDS011;21234;48.690;9.016;2023-11-21T10:41:54;1.63;;;1.20;;
705;SDS011;21234;48.690;9.016;2023-11-21T10:44:21;1.77;;;1.00;;
705;SDS011;21234;48.690;9.016;2023-11-21T10:46:49;1.50;;;1.00;;
705;SDS011;21234;48.690;9.016;2023-11-21T10:49:17;2.00;;;1.40;;
705;SDS011;21234;48.690;9.016;2023-11-21T10:51:45;4.30;;;1.57;;
705;SDS011;21234;48.690;9.016;2023-11-21T10:54:16;2.67;;;1.43;;
705;SDS011;21234;48.690;9.016;2023-11-21T10:56:43;1.60;;;1.37;;
705;SDS011;21234;48.690;9.016;2023-11-21T10:59:13;3.23;;;2.13;;
705;SDS011;21234;48.690;9.016;2023-11-21T11:01:41;3.17;;;1.70;;
705;SDS011;21234;48.690;9.016;2023-11-21T11:04:11;1.90;;;1.47;;
705;SDS011;21234;48.690;9.016;2023-11-21T11:06:41;2.33;;;1.70;;
705;SDS011;21234;48.690;9.016;2023-11-21T11:09:09;2.77;;;1.50;;
705;SDS011;21234;48.690;9.016;2023-11-21T11:11:38;2.40;;;1.47;;
705;SDS011;21234;48.690;9.016;2023-11-21T11:14:07;1.40;;;1.30;;
705;SDS011;21234;48.690;9.016;2023-11-21T11:16:38;3.13;;;2.07;;
705;SDS011;21234;48.690;9.016;2023-11-21T11:19:06;2.13;;;1.93;;
705;SDS011;21234;48.690;9.016;2023-11-21T11:21:37;1.90;;;1.80;;
705;SDS011;21234;48.690;9.016;2023-11-21T11:24:17;2.33;;;1.90;;
705;SDS011;21234;48.690;9.016;2023-11-21T11:27:00;3.17;;;2.17;;
705;SDS011;21234;48.690;9.016;2023-11-21T11:29:35;2.47;;;2.13;;
705;SDS011;21234;48.690;9.016;2023-11-21T11:32:13;1.83;;;1.73;;
705;SDS011;21234;48.690;9.016;2023-11-21T11:34:47;2.50;;;1.80;;
705;SDS011;21234;48.690;9.016;2023-11-21T11:37:20;2.70;;;2.10;;
705;SDS011;21234;48.690;9.016;2023-11-21T11:39:48;1.70;;;1.60;;
705;SDS011;21234;48.690;9.016;2023-11-21T11:42:16;1.63;;;1.20;;
705;SDS011;21234;48.690;9.016;2023-11-21T11:44:51;2.17;;;1.57;;
705;SDS011;21234;48.690;9.016;2023-11-21T11:47:22;1.47;;;1.20;;
705;SDS011;21234;48.690;9.016;2023-11-21T11:49:58;2.27;;;1.50;;
705;SDS011;21234;48.690;9.016;2023-11-21T11:52:32;2.67;;;2.43;;
705;SDS011;21234;48.690;9.016;2023-11-21T11:55:00;2.60;;;2.10;;
705;SDS011;21234;48.690;9.016;2023-11-21T11:57:29;2.63;;;1.60;;
705;SDS011;21234;48.690;9.016;2023-11-21T12:00:13;2.80;;;1.70;;
705;SDS011;21234;48.690;9.016;2023-11-21T12:02:51;1.93;;;1.73;;
705;SDS011;21234;48.690;9.016;2023-11-21T12:05:19;1.23;;;1.10;;
705;SDS011;21234;48.690;9.016;2023-11-21T12:07:48;1.20;;;1.10;;
705;SDS011;21234;48.690;9.016;2023-11-21T12:10:18;2.40;;;1.60;;
705;SDS011;21234;48.690;9.016;2023-11-21T12:12:46;3.10;;;1.70;;
705;SDS011;21234;48.690;9.016;2023-11-21T12:15:14;1.40;;;1.23;;
705;SDS011;21234;48.690;9.016;2023-11-21T12:17:41;2.80;;;1.70;;
705;SDS011;21234;48.690;9.016;2023-11-21T12:20:11;2.93;;;1.83;;
705;SDS011;21234;48.690;9.016;2023-11-21T12:22:43;1.90;;;1.80;;
705;SDS011;21234;48.690;9.016;2023-11-21T12:25:12;2.80;;;1.73;;
705;SDS011;21234;48.690;9.016;2023-11-21T12:27:42;1.20;;;1.10;;
705;SDS011;21234;48.690;9.016;2023-11-21T12:30:10;1.07;;;0.83;;
705;SDS011;21234;48.690;9.016;2023-11-21T12:32:40;2.13;;;1.70;;
705;SDS011;21234;48.690;9.016;2023-11-21T12:35:08;4.00;;;2.70;;
705;SDS011;21234;48.690;9.016;2023-11-21T12:37:37;2.80;;;2.37;;
705;SDS011;21234;48.690;9.016;2023-11-21T12:40:06;3.63;;;2.30;;
705;SDS011;21234;48.690;9.016;2023-11-21T12:42:37;2.13;;;1.80;;
705;SDS011;21234;48.690;9.016;2023-11-21T12:45:07;2.63;;;2.43;;
705;SDS011;21234;48.690;9.016;2023-11-21T12:47:39;5.63;;;4.00;;
705;SDS011;21234;48.690;9.016;2023-11-21T12:50:07;5.03;;;3.10;;
705;SDS011;21234;48.690;9.016;2023-11-21T12:52:41;2.77;;;2.43;;
705;SDS011;21234;48.690;9.016;2023-11-21T12:55:13;2.03;;;1.83;;
705;SDS011;21234;48.690;9.016;2023-11-21T12:57:41;2.37;;;1.67;;
705;SDS011;21234;48.690;9.016;2023-11-21T13:00:09;2.07;;;1.90;;
705;SDS011;21234;48.690;9.016;2023-11-21T13:02:50;4.57;;;2.33;;
705;SDS011;21234;48.690;9.016;2023-11-21T13:05:23;4.23;;;1.60;;
705;SDS011;21234;48.690;9.016;2023-11-21T13:07:55;1.73;;;1.60;;
705;SDS011;21234;48.690;9.016;2023-11-21T13:10:25;5.30;;;2.20;;
705;SDS011;21234;48.690;9.016;2023-11-21T13:12:56;2.27;;;1.77;;
705;SDS011;21234;48.690;9.016;2023-11-21T13:15:25;2.67;;;1.83;;
705;SDS011;21234;48.690;9.016;2023-11-21T13:17:52;2.77;;;2.10;;
705;SDS011;21234;48.690;9.016;2023-11-21T13:20:21;1.57;;;1.30;;
705;SDS011;21234;48.690;9.016;2023-11-21T13:22:49;2.67;;;2.47;;
705;SDS011;21234;48.690;9.016;2023-11-21T13:25:20;1.70;;;1.40;;
705;SDS011;21234;48.690;9.016;2023-11-21T13:27:47;1.77;;;1.67;;
705;SDS011;21234;48.690;9.016;2023-11-21T13:30:15;2.53;;;1.90;;
705;SDS011;21234;48.690;9.016;2023-11-21T13:32:43;2.60;;;2.37;;
705;SDS011;21234;48.690;9.016;2023-11-21T13:35:11;2.50;;;2.10;;
705;SDS011;21234;48.690;9.016;2023-11-21T13:37:46;3.87;;;2.57;;
705;SDS011;21234;48.690;9.016;2023-11-21T13:40:17;3.83;;;3.30;;
705;SDS011;21234;48.690;9.016;2023-11-21T13:42:51;2.47;;;2.20;;
705;SDS011;21234;48.690;9.016;2023-11-21T13:45:20;2.87;;;1.87;;
705;SDS011;21234;48.690;9.016;2023-11-21T13:47:48;1.90;;;1.60;;
705;SDS011;21234;48.690;9.016;2023-11-21T13:50:17;1.40;;;1.20;;
705;SDS011;21234;48.690;9.016;2023-11-21T13:52:48;3.53;;;0.87;;
705;SDS011;21234;48.690;9.016;2023-11-21T13:55:16;1.03;;;0.80;;
705;SDS011;21234;48.690;9.016;2023-11-21T13:57:44;4.63;;;0.80;;
705;SDS011;21234;48.690;9.016;2023-11-21T14:00:16;7.53;;;1.53;;
705;SDS011;21234;48.690;9.016;2023-11-21T14:02:57;2.83;;;1.50;;
705;SDS011;21234;48.690;9.016;2023-11-21T14:05:25;2.13;;;1.40;;
705;SDS011;21234;48.690;9.016;2023-11-21T14:07:54;0.70;;;0.70;;
705;SDS011;21234;48.690;9.016;2023-11-21T14:10:27;1.27;;;1.17;;
705;SDS011;21234;48.690;9.016;2023-11-21T14:13:03;1.43;;;0.93;;
705;SDS011;21234;48.690;9.016;2023-11-21T14:15:31;2.33;;;1.40;;
705;SDS011;21234;48.690;9.016;2023-11-21T14:17:58;1.30;;;1.20;;
705;SDS011;21234;48.690;9.016;2023-11-21T14:20:27;3.73;;;2.90;;
705;SDS011;21234;48.690;9.016;2023-11-21T14:22:55;2.27;;;1.93;;
705;SDS011;21234;48.690;9.016;2023-11-21T14:25:22;2.07;;;1.60;;
705;SDS011;21234;48.690;9.016;2023-11-21T14:27:49;3.03;;;1.90;;
705;SDS011;21234;48.690;9.016;2023-11-21T14:30:17;1.60;;;1.50;;
705;SDS011;21234;48.690;9.016;2023-11-21T14:32:47;6.20;;;3.83;;
705;SDS011;21234;48.690;9.016;2023-11-21T14:35:14;4.93;;;2.90;;
705;SDS011;21234;48.690;9.016;2023-11-21T14:37:41;3.00;;;2.60;;
705;SDS011;21234;48.690;9.016;2023-11-21T14:40:08;3.27;;;2.53;;
705;SDS011;21234;48.690;9.016;2023-11-21T14:42:36;5.27;;;4.23;;
705;SDS011;21234;48.690;9.016;2023-11-21T14:45:05;4.13;;;2.83;;
705;SDS011;21234;48.690;9.016;2023-11-21T14:47:34;4.83;;;3.67;;
705;SDS011;21234;48.690;9.016;2023-11-21T14:50:03;3.70;;;3.20;;
705;SDS011;21234;48.690;9.016;2023-11-21T14:52:51;3.47;;;3.00;;
705;SDS011;21234;48.690;9.016;2023-11-21T14:55:24;2.50;;;2.30;;
705;SDS011;21234;48.690;9.016;2023-11-21T14:57:56;3.83;;;2.80;;
705;SDS011;21234;48.690;9.016;2023-11-21T15:00:23;3.00;;;2.53;;
705;SDS011;21234;48.690;9.016;2023-11-21T15:03:11;1.93;;;1.77;;
705;SDS011;21234;48.690;9.016;2023-11-21T15:05:51;2.77;;;2.47;;
705;SDS011;21234;48.690;9.016;2023-11-21T15:08:18;2.10;;;1.90;;
705;SDS011;21234;48.690;9.016;2023-11-21T15:10:49;2.83;;;2.03;;
705;SDS011;21234;48.690;9.016;2023-11-21T15:13:20;2.87;;;2.50;;
705;SDS011;21234;48.690;9.016;2023-11-21T15:15:47;2.30;;;1.97;;
705;SDS011;21234;48.690;9.016;2023-11-21T15:18:15;1.83;;;1.70;;
705;SDS011;21234;48.690;9.016;2023-11-21T15:20:43;4.27;;;3.00;;
705;SDS011;21234;48.690;9.016;2023-11-21T15:23:18;4.73;;;3.47;;